Time;durP1;ratioP1;P1;durP2;ratioP2;P2;SDS_P1;SDS_P2;PMS_P1;PMS_P2;Temp;Humidity;BMP_temperature;BMP_pressure;BME280_temperature;BME280_humidity;BME280_pressure;Samples;Min_cycle;Max_cycle;Signal;HPM_P1;HPM_P2
2022/08/26 00:01:40;;;;;;;;;;;;;;;;;;5045202;28;2106;-73
2022/08/26 00:04:05;;;;;;;;;;;;;;;;;;5051000;28;1569;-73
2022/08/26 00:06:31;;;;;;;;;;;;;;;;;;5039791;28;1906;-73
2022/08/26 00:08:56;;;;;;;;;;;;;;;;;;5045176;28;1567;-73
2022/08/26 00:11:22;;;;;;;;;;;;;;;;;;5042053;28;1245;-74
2022/08/26 00:13:47;;;;;;;;;;;;;;;;;;5041359;28;1573;-73
2022/08/26 00:16:12;;;;;;;;;;;;;;;;;;5047152;28;1583;-73
2022/08/26 00:18:38;;;;;;;;;;;;;;;;;;5041138;28;1598;-73
2022/08/26 00:21:03;;;;;;;;;;;;;;;;;;5041642;28;1570;-73
2022/08/26 00:23:28;;;;;;;;;;;;;;;;;;5041578;28;1428;-73
2022/08/26 00:25:54;;;;;;;;;;;;;;;;;;5040853;28;1867;-73
2022/08/26 00:28:19;;;;;;;;;;;;;;;;;;5041489;28;1467;-73
2022/08/26 00:30:47;;;;;;;;;;;;;;;;;;5040288;28;1573;-74
2022/08/26 00:33:13;;;;;;;;;;;;;;;;;;5041158;28;1348;-74
2022/08/26 00:35:38;;;;;;;;;;;;;;;;;;5040702;28;1627;-72
2022/08/26 00:38:04;;;;;;;;;;;;;;;;;;5040242;28;1507;-74
2022/08/26 00:40:34;;;;;;;;;;;;;;;;;;5046717;28;1016;-74
2022/08/26 00:43:00;;;;;;;;;;;;;;;;;;5040928;28;1534;-74
2022/08/26 00:45:25;;;;;;;;;;;;;;;;;;5040249;28;1550;-74
2022/08/26 00:47:58;;;;;;;;;;;;;;;;;;5042007;28;1906;-74
2022/08/26 00:50:25;;;;;;;;;;;;;;;;;;5032606;28;1140;-73
2022/08/26 00:52:52;;;;;;;;;;;;;;;;;;5046098;28;1587;-73
2022/08/26 00:55:24;;;;;;;;;;;;;;;;;;5044659;28;1498;-73
2022/08/26 00:57:50;;;;;;;;;;;;;;;;;;5041122;28;1444;-73
2022/08/26 01:00:21;;;;;;;;;;;;;;;;;;5040044;28;1589;-73
2022/08/26 01:02:46;;;;;;;;;;;;;;;;;;5043462;28;1284;-73
2022/08/26 01:05:12;;;;;;;;;;;;;;;;;;5040384;28;1401;-73
2022/08/26 01:07:38;;;;;;;;;;;;;;;;;;5040606;28;1894;-73
2022/08/26 01:10:05;;;;;;;;;;;;;;;;;;5040969;28;1657;-73
2022/08/26 01:12:34;;;;;;;;;;;;;;;;;;5040655;28;1237;-73
2022/08/26 01:15:01;;;;;;;;;;;;;;;;;;5040728;28;1172;-73
2022/08/26 01:17:26;;;;;;;;;;;;;;;;;;5046671;28;1598;-73
2022/08/26 01:19:56;;;;;;;;;;;;;;;;;;5039498;28;1697;-73
2022/08/26 01:22:25;;;;;;;;;;;;;;;;;;5040886;28;2084;-72
2022/08/26 01:24:50;;;;;;;;;;;;;;;;;;5041572;28;1602;-72
2022/08/26 01:27:17;;;;;;;;;;;;;;;;;;5040246;28;1875;-72
2022/08/26 01:29:44;;;;;;;;;;;;;;;;;;5033729;28;1570;-72
2022/08/26 01:32:10;;;;;;;;;;;;;;;;;;5039394;28;1674;-72
2022/08/26 01:34:37;;;;;;;;;;;;;;;;;;5039812;28;1539;-72
2022/08/26 01:37:05;;;;;;;;;;;;;;;;;;5040426;28;1602;-72
2022/08/26 01:39:32;;;;;;;;;;;;;;;;;;5039640;28;1510;-72
2022/08/26 01:41:58;;;;;;;;;;;;;;;;;;5040567;28;1215;-72
2022/08/26 01:44:25;;;;;;;;;;;;;;;;;;5040041;28;1617;-72
2022/08/26 01:46:51;;;;;;;;;;;;;;;;;;5045691;28;1957;-72
2022/08/26 01:49:16;;;;;;;;;;;;;;;;;;5040131;28;1404;-72
2022/08/26 01:51:43;;;;;;;;;;;;;;;;;;5040507;28;1662;-71
2022/08/26 01:54:09;;;;;;;;;;;;;;;;;;5039158;28;1523;-71
2022/08/26 01:56:34;;;;;;;;;;;;;;;;;;5040071;28;1259;-74
2022/08/26 01:59:01;;;;;;;;;;;;;;;;;;5039548;28;1534;-74
2022/08/26 02:01:27;;;;;;;;;;;;;;;;;;5030673;28;1268;-73
2022/08/26 02:04:04;;;;;;;;;;;;;;;;;;5042361;28;1649;-75
2022/08/26 02:06:29;;;;;;;;;;;;;;;;;;5034965;28;1965;-75
2022/08/26 02:08:56;;;;;;;;;;;;;;;;;;5040338;28;1364;-74
2022/08/26 02:11:22;;;;;;;;;;;;;;;;;;5050874;28;1137;-74
2022/08/26 02:13:50;;;;;;;;;;;;;;;;;;5043632;28;1593;-74
2022/08/26 02:16:18;;;;;;;;;;;;;;;;;;5045892;28;1669;-74
2022/08/26 02:18:43;;;;;;;;;;;;;;;;;;5043327;28;1673;-74
2022/08/26 02:21:09;;;;;;;;;;;;;;;;;;5045885;28;1621;-74
2022/08/26 02:23:35;;;;;;;;;;;;;;;;;;5043158;28;1562;-74
2022/08/26 02:26:09;;;;;;;;;;;;;;;;;;5041892;28;1956;-74
2022/08/26 02:28:37;;;;;;;;;;;;;;;;;;5043329;28;1656;-74
2022/08/26 02:31:03;;;;;;;;;;;;;;;;;;5042960;28;1487;-74
2022/08/26 02:33:29;;;;;;;;;;;;;;;;;;5042740;28;1606;-73
2022/08/26 02:35:54;;;;;;;;;;;;;;;;;;5042973;28;1554;-73
2022/08/26 02:38:19;;;;;;;;;;;;;;;;;;5041990;28;1610;-73
2022/08/26 02:40:44;;;;;;;;;;;;;;;;;;5043147;28;1236;-73
2022/08/26 02:43:11;;;;;;;;;;;;;;;;;;5043127;28;1628;-73
2022/08/26 02:45:36;;;;;;;;;;;;;;;;;;5041677;28;1503;-73
2022/08/26 02:48:20;;;;;;;;;;;;;;;;;;5042528;28;1901;-73
2022/08/26 02:50:46;;;;;;;;;;;;;;;;;;5044623;28;1594;-72
2022/08/26 02:53:11;;;;;;;;;;;;;;;;;;5041728;28;1550;-72
2022/08/26 02:55:37;;;;;;;;;;;;;;;;;;5047450;28;1438;-72
2022/08/26 02:58:02;;;;;;;;;;;;;;;;;;5042931;28;1637;-72
2022/08/26 03:00:27;;;;;;;;;;;;;;;;;;5041972;28;1578;-72
2022/08/26 03:02:53;;;;;;;;;;;;;;;;;;5046877;28;1575;-71
2022/08/26 03:05:20;;;;;;;;;;;;;;;;;;5045938;28;1339;-72
2022/08/26 03:07:45;;;;;;;;;;;;;;;;;;5047531;28;1963;-74
2022/08/26 03:10:15;;;;;;;;;;;;;;;;;;5048487;28;1368;-74
2022/08/26 03:12:40;;;;;;;;;;;;;;;;;;5042638;28;1220;-73
2022/08/26 03:15:06;;;;;;;;;;;;;;;;;;5040608;28;1574;-72
2022/08/26 03:17:31;;;;;;;;;;;;;;;;;;5043450;28;1427;-73
2022/08/26 03:19:56;;;;;;;;;;;;;;;;;;5043417;28;1516;-73
2022/08/26 03:22:21;;;;;;;;;;;;;;;;;;5039855;28;1898;-73
2022/08/26 03:24:47;;;;;;;;;;;;;;;;;;5041156;28;1598;-73
2022/08/26 03:27:12;;;;;;;;;;;;;;;;;;5042155;28;1898;-73
2022/08/26 03:32:21;;;;;;;;;;;;;;;;;;5041310;28;1327;-73
2022/08/26 03:34:46;;;;;;;;;;;;;;;;;;5042041;28;1239;-73
2022/08/26 03:37:12;;;;;;;;;;;;;;;;;;5042215;28;1525;-72
2022/08/26 03:39:37;;;;;;;;;;;;;;;;;;5042432;28;1590;-73
2022/08/26 03:42:02;;;;;;;;;;;;;;;;;;5042163;28;1327;-73
2022/08/26 03:44:27;;;;;;;;;;;;;;;;;;5044700;28;1641;-75
2022/08/26 03:46:53;;;;;;;;;;;;;;;;;;5041237;28;1953;-74
2022/08/26 03:49:18;;;;;;;;;;;;;;;;;;5042061;28;1164;-75
2022/08/26 03:51:43;;;;;;;;;;;;;;;;;;5041814;28;1380;-72
2022/08/26 03:54:09;;;;;;;;;;;;;;;;;;5042087;28;1716;-72
2022/08/26 03:56:35;;;;;;;;;;;;;;;;;;5043284;28;1283;-72
2022/08/26 03:59:01;;;;;;;;;;;;;;;;;;5041906;28;1347;-72
2022/08/26 04:01:26;;;;;;;;;;;;;;;;;;5039856;28;1610;-74
2022/08/26 04:03:57;;;;;;;;;;;;;;;;;;5041454;28;1625;-74
2022/08/26 04:06:28;;;;;;;;;;;;;;;;;;5021677;28;1903;-73
2022/08/26 04:08:55;;;;;;;;;;;;;;;;;;5048827;28;2138;-74
2022/08/26 04:11:21;;;;;;;;;;;;;;;;;;5052443;28;1144;-74
2022/08/26 04:13:47;;;;;;;;;;;;;;;;;;5047552;28;1649;-74
2022/08/26 04:16:12;;;;;;;;;;;;;;;;;;5045176;28;1289;-74
2022/08/26 04:18:38;;;;;;;;;;;;;;;;;;5053048;28;1282;-74
2022/08/26 04:21:04;;;;;;;;;;;;;;;;;;5048304;28;1332;-74
2022/08/26 04:23:29;;;;;;;;;;;;;;;;;;5044273;28;1563;-74
2022/08/26 04:25:54;;;;;;;;;;;;;;;;;;5053077;28;1593;-74
2022/08/26 04:28:21;;;;;;;;;;;;;;;;;;5050382;28;1943;-73
2022/08/26 04:30:46;;;;;;;;;;;;;;;;;;5045070;28;1607;-73
2022/08/26 04:33:12;;;;;;;;;;;;;;;;;;5048269;28;1209;-72
2022/08/26 04:35:37;;;;;;;;;;;;;;;;;;5050159;28;1570;-73
2022/08/26 04:38:03;;;;;;;;;;;;;;;;;;5040731;28;1590;-73
2022/08/26 04:40:28;;;;;;;;;;;;;;;;;;5042458;28;1363;-73
2022/08/26 04:42:53;;;;;;;;;;;;;;;;;;5048225;28;1243;-72
2022/08/26 04:45:19;;;;;;;;;;;;;;;;;;5047712;28;1294;-72
2022/08/26 04:47:45;;;;;;;;;;;;;;;;;;5048349;28;1969;-72
2022/08/26 04:50:11;;;;;;;;;;;;;;;;;;5047201;28;1300;-74
2022/08/26 04:52:36;;;;;;;;;;;;;;;;;;5045274;28;1349;-73
2022/08/26 04:55:01;;;;;;;;;;;;;;;;;;5049470;28;1255;-74
2022/08/26 04:57:26;;;;;;;;;;;;;;;;;;5051409;28;1251;-74
2022/08/26 04:59:52;;;;;;;;;;;;;;;;;;5046822;28;1424;-74
2022/08/26 05:02:18;;;;;;;;;;;;;;;;;;5045528;28;1567;-73
2022/08/26 05:04:43;;;;;;;;;;;;;;;;;;5048258;28;1330;-73
2022/08/26 05:07:09;;;;;;;;;;;;;;;;;;5050382;28;1902;-73
2022/08/26 05:09:34;;;;;;;;;;;;;;;;;;5049355;28;1349;-74
2022/08/26 05:11:59;;;;;;;;;;;;;;;;;;5042301;28;1625;-75
2022/08/26 05:14:25;;;;;;;;;;;;;;;;;;5039325;28;1614;-75
2022/08/26 05:16:50;;;;;;;;;;;;;;;;;;5045438;28;1500;-75
2022/08/26 05:19:15;;;;;;;;;;;;;;;;;;5040829;28;1199;-75
2022/08/26 05:21:41;;;;;;;;;;;;;;;;;;5040851;28;1553;-75
2022/08/26 05:24:06;;;;;;;;;;;;;;;;;;5042407;28;1673;-75
2022/08/26 05:26:31;;;;;;;;;;;;;;;;;;5042933;28;1914;-75
2022/08/26 05:28:57;;;;;;;;;;;;;;;;;;5041911;28;1224;-76
2022/08/26 05:31:24;;;;;;;;;;;;;;;;;;5044179;28;1348;-76
2022/08/26 05:33:49;;;;;;;;;;;;;;;;;;5038362;28;1620;-75
2022/08/26 05:36:15;;;;;;;;;;;;;;;;;;5038962;28;1287;-74
2022/08/26 05:38:41;;;;;;;;;;;;;;;;;;5049044;28;1539;-73
2022/08/26 05:41:33;;;;;;;;;;;;;;;;;;5047806;28;1626;-69
2022/08/26 05:43:59;;;;;;;;;;;;;;;;;;5039175;28;1418;-71
2022/08/26 05:46:25;;;;;;;;;;;;;;;;;;5042080;28;1960;-70
2022/08/26 05:48:51;;;;;;;;;;;;;;;;;;5044762;28;1598;-70
2022/08/26 05:51:16;;;;;;;;;;;;;;;;;;5043023;28;1324;-71
2022/08/26 05:53:42;;;;;;;;;;;;;;;;;;5040932;28;1362;-71
2022/08/26 05:56:08;;;;;;;;;;;;;;;;;;5032601;28;1442;-70
2022/08/26 05:58:34;;;;;;;;;;;;;;;;;;5024018;28;1048;-71
2022/08/26 06:01:00;;;;;;;;;;;;;;;;;;5034248;28;1436;-69
2022/08/26 06:03:25;;;;;;;;;;;;;;;;;;5043509;28;1822;-69
2022/08/26 06:05:50;;;;;;;;;;;;;;;;;;5043247;28;1228;-69
2022/08/26 06:08:17;;;;;;;;;;;;;;;;;;5043782;28;1949;-70
2022/08/26 06:11:03;;;;;;;;;;;;;;;;;;5044721;28;1447;-70
2022/08/26 06:13:28;;;;;;;;;;;;;;;;;;5035092;28;1601;-69
2022/08/26 06:15:54;;;;;;;;;;;;;;;;;;5057635;28;1518;-69
2022/08/26 06:18:21;;;;;;;;;;;;;;;;;;5048805;28;1574;-68
2022/08/26 06:20:47;;;;;;;;;;;;;;;;;;5043689;28;1144;-70
2022/08/26 06:25:57;;;;;;;;;;;;;;;;;;5043236;28;1232;-70
2022/08/26 06:28:23;;;;;;;;;;;;;;;;;;5046096;28;1965;-69
2022/08/26 06:30:49;;;;;;;;;;;;;;;;;;5058391;28;1404;-69
2022/08/26 06:33:14;;;;;;;;;;;;;;;;;;5021332;28;1642;-69
2022/08/26 06:35:40;;;;;;;;;;;;;;;;;;5035634;28;1332;-70
2022/08/26 06:38:07;;;;;;;;;;;;;;;;;;5041095;28;1049;-70
2022/08/26 06:40:32;;;;;;;;;;;;;;;;;;5043003;28;828;-69
2022/08/26 06:42:57;;;;;;;;;;;;;;;;;;5043470;28;806;-69
2022/08/26 06:45:23;;;;;;;;;;;;;;;;;;5050742;28;1380;-69
2022/08/26 06:47:48;;;;;;;;;;;;;;;;;;5050099;28;1959;-69
2022/08/26 06:50:13;;;;;;;;;;;;;;;;;;5042083;28;910;-70
2022/08/26 06:52:41;;;;;;;;;;;;;;;;;;5041984;28;845;-69
2022/08/26 06:55:07;;;;;;;;;;;;;;;;;;5042742;28;1188;-70
2022/08/26 06:57:35;;;;;;;;;;;;;;;;;;5043011;28;1135;-69
2022/08/26 07:00:01;;;;;;;;;;;;;;;;;;5056098;28;1511;-69
2022/08/26 07:02:26;;;;;;;;;;;;;;;;;;5051012;28;1454;-69
2022/08/26 07:04:51;;;;;;;;;;;;;;;;;;5042117;28;1447;-69
2022/08/26 07:07:16;;;;;;;;;;;;;;;;;;5040338;28;1931;-69
2022/08/26 07:09:41;;;;;;;;;;;;;;;;;;5041942;28;1211;-69
2022/08/26 07:12:08;;;;;;;;;;;;;;;;;;5042944;28;802;-68
2022/08/26 07:14:33;;;;;;;;;;;;;;;;;;5042109;28;1487;-69
2022/08/26 07:17:00;;;;;;;;;;;;;;;;;;5042238;28;1389;-69
2022/08/26 07:19:25;;;;;;;;;;;;;;;;;;5042800;28;1331;-69
2022/08/26 07:21:50;;;;;;;;;;;;;;;;;;5041880;28;1727;-69
2022/08/26 07:24:15;;;;;;;;;;;;;;;;;;5042212;28;1618;-70
2022/08/26 07:26:41;;;;;;;;;;;;;;;;;;5041170;28;1886;-70
2022/08/26 07:29:06;;;;;;;;;;;;;;;;;;5040970;28;1573;-69
2022/08/26 07:31:34;;;;;;;;;;;;;;;;;;5042579;28;1574;-70
2022/08/26 07:33:59;;;;;;;;;;;;;;;;;;5042340;28;1508;-69
2022/08/26 07:36:26;;;;;;;;;;;;;;;;;;5042058;28;1204;-69
2022/08/26 07:38:52;;;;;;;;;;;;;;;;;;5042222;28;827;-69
2022/08/26 07:41:18;;;;;;;;;;;;;;;;;;5044880;28;1510;-69
2022/08/26 07:43:44;;;;;;;;;;;;;;;;;;5045858;28;1476;-69
2022/08/26 07:46:10;;;;;;;;;;;;;;;;;;5041758;28;1932;-69
2022/08/26 07:48:35;;;;;;;;;;;;;;;;;;5042189;28;1352;-69
2022/08/26 07:51:01;;;;;;;;;;;;;;;;;;5041994;28;858;-69
2022/08/26 07:53:26;;;;;;;;;;;;;;;;;;5042062;28;1594;-69
2022/08/26 07:55:51;;;;;;;;;;;;;;;;;;5048699;28;1562;-69
2022/08/26 07:58:16;;;;;;;;;;;;;;;;;;5042180;28;1347;-69
2022/08/26 08:00:42;;;;;;;;;;;;;;;;;;5042941;28;2229;-70
2022/08/26 08:03:08;;;;;;;;;;;;;;;;;;5039751;28;2075;-70
2022/08/26 08:05:33;;;;;;;;;;;;;;;;;;5044334;28;1657;-70
2022/08/26 08:07:59;;;;;;;;;;;;;;;;;;5050604;28;1893;-70
2022/08/26 08:10:25;;;;;;;;;;;;;;;;;;5049569;28;1260;-69
2022/08/26 08:12:50;;;;;;;;;;;;;;;;;;5047631;28;1237;-68
2022/08/26 08:15:17;;;;;;;;;;;;;;;;;;5047813;28;1432;-69
2022/08/26 08:17:42;;;;;;;;;;;;;;;;;;5047117;28;1267;-69
2022/08/26 08:20:08;;;;;;;;;;;;;;;;;;5047155;28;1689;-69
2022/08/26 08:22:34;;;;;;;;;;;;;;;;;;5047078;28;1238;-70
2022/08/26 08:24:59;;;;;;;;;;;;;;;;;;5043464;28;1301;-70
2022/08/26 08:27:24;;;;;;;;;;;;;;;;;;5049860;28;1894;-70
2022/08/26 08:29:52;;;;;;;;;;;;;;;;;;5054315;28;1285;-71
2022/08/26 08:32:18;;;;;;;;;;;;;;;;;;5052671;28;1296;-71
2022/08/26 08:34:43;;;;;;;;;;;;;;;;;;5051256;28;1247;-71
2022/08/26 08:37:08;;;;;;;;;;;;;;;;;;5045724;28;1282;-70
2022/08/26 08:39:33;;;;;;;;;;;;;;;;;;5043190;28;1407;-70
2022/08/26 08:42:05;;;;;;;;;;;;;;;;;;5041540;28;1429;-70
2022/08/26 08:44:30;;;;;;;;;;;;;;;;;;5052062;28;1513;-70
2022/08/26 08:47:02;;;;;;;;;;;;;;;;;;5044383;28;1925;-70
2022/08/26 08:49:28;;;;;;;;;;;;;;;;;;5049747;28;1200;-70
2022/08/26 08:51:56;;;;;;;;;;;;;;;;;;5047380;28;1317;-70
2022/08/26 08:54:22;;;;;;;;;;;;;;;;;;5055133;28;1247;-70
2022/08/26 08:56:51;;;;;;;;;;;;;;;;;;5053672;28;1591;-70
2022/08/26 08:59:17;;;;;;;;;;;;;;;;;;5045888;28;1460;-70
2022/08/26 09:02:01;;;;;;;;;;;;;;;;;;5047745;28;1298;-70
2022/08/26 09:04:42;;;;;;;;;;;;;;;;;;5046934;28;1389;-70
2022/08/26 09:07:09;;;;;;;;;;;;;;;;;;5029623;28;1961;-70
2022/08/26 09:09:43;;;;;;;;;;;;;;;;;;5048531;28;1200;-70
2022/08/26 09:12:11;;;;;;;;;;;;;;;;;;5044135;28;1503;-69
2022/08/26 09:14:37;;;;;;;;;;;;;;;;;;5047240;28;1278;-70
2022/08/26 09:17:11;;;;;;;;;;;;;;;;;;5048346;28;1441;-70
2022/08/26 09:19:40;;;;;;;;;;;;;;;;;;5051707;28;1271;-70
2022/08/26 09:22:05;;;;;;;;;;;;;;;;;;5046560;28;1384;-69
2022/08/26 09:24:33;;;;;;;;;;;;;;;;;;5042603;28;1385;-69
2022/08/26 09:26:59;;;;;;;;;;;;;;;;;;5046851;28;1893;-70
2022/08/26 09:29:25;;;;;;;;;;;;;;;;;;5050677;28;1259;-70
2022/08/26 09:31:52;;;;;;;;;;;;;;;;;;5049548;28;1362;-70
2022/08/26 09:34:17;;;;;;;;;;;;;;;;;;5047902;28;1873;-70
2022/08/26 09:36:44;;;;;;;;;;;;;;;;;;5049003;28;1310;-70
2022/08/26 09:39:31;;;;;;;;;;;;;;;;;;5047427;28;1326;-70
2022/08/26 09:42:21;;;;;;;;;;;;;;;;;;5046467;28;1514;-70
2022/08/26 09:44:59;;;;;;;;;;;;;;;;;;5034148;28;1654;-70
2022/08/26 09:47:25;;;;;;;;;;;;;;;;;;5048132;28;1956;-70
2022/08/26 09:50:03;;;;;;;;;;;;;;;;;;5046894;28;1177;-69
2022/08/26 09:52:28;;;;;;;;;;;;;;;;;;5052043;28;1416;-70
2022/08/26 09:55:00;;;;;;;;;;;;;;;;;;5050039;28;1341;-69
2022/08/26 09:57:30;;;;;;;;;;;;;;;;;;5039813;28;1251;-70
2022/08/26 09:59:55;;;;;;;;;;;;;;;;;;5038750;28;1431;-69
2022/08/26 10:02:20;;;;;;;;;;;;;;;;;;5039943;28;1534;-69
2022/08/26 10:04:54;;;;;;;;;;;;;;;;;;5040062;28;1566;-72
2022/08/26 10:07:41;;;;;;;;;;;;;;;;;;5053541;28;1897;-73
2022/08/26 10:10:08;;;;;;;;;;;;;;;;;;5060431;28;850;-73
2022/08/26 10:12:34;;;;;;;;;;;;;;;;;;5035081;28;1676;-71
2022/08/26 10:15:02;;;;;;;;;;;;;;;;;;5032689;28;1335;-72
2022/08/26 10:17:30;;;;;;;;;;;;;;;;;;5035845;28;1338;-69
2022/08/26 10:20:02;;;;;;;;;;;;;;;;;;5038025;28;1251;-70
2022/08/26 10:22:46;;;;;;;;;;;;;;;;;;5060237;28;819;-70
2022/08/26 10:25:16;;;;;;;;;;;;;;;;;;5062814;28;1451;-70
2022/08/26 10:28:07;;;;;;;;;;;;;;;;;;5046364;28;2097;-70
2022/08/26 10:30:41;;;;;;;;;;;;;;;;;;5011231;28;1400;-70
2022/08/26 10:33:08;;;;;;;;;;;;;;;;;;5042577;28;1296;-71
2022/08/26 10:35:34;;;;;;;;;;;;;;;;;;5045363;28;1541;-70
2022/08/26 10:38:07;;;;;;;;;;;;;;;;;;5045721;28;1475;-70
2022/08/26 10:40:53;;;;;;;;;;;;;;;;;;5031542;28;1641;-69
2022/08/26 10:43:24;;;;;;;;;;;;;;;;;;5023079;28;1760;-70
2022/08/26 10:45:51;;;;;;;;;;;;;;;;;;5042199;28;1603;-70
2022/08/26 10:48:21;;;;;;;;;;;;;;;;;;5041628;28;1890;-70
2022/08/26 10:50:46;;;;;;;;;;;;;;;;;;5041632;28;1317;-71
2022/08/26 10:53:14;;;;;;;;;;;;;;;;;;5042995;28;1548;-70
2022/08/26 10:55:50;;;;;;;;;;;;;;;;;;5042199;28;1565;-70
2022/08/26 10:58:27;;;;;;;;;;;;;;;;;;5043230;28;775;-69
2022/08/26 11:03:50;;;;;;;;;;;;;;;;;;5051059;28;1538;-69
2022/08/26 11:06:18;;;;;;;;;;;;;;;;;;5045294;28;1963;-70
2022/08/26 11:08:47;;;;;;;;;;;;;;;;;;5051885;28;1458;-70
2022/08/26 11:11:33;;;;;;;;;;;;;;;;;;5043949;28;1660;-70
2022/08/26 11:14:00;;;;;;;;;;;;;;;;;;5037182;28;1360;-71
2022/08/26 11:16:42;;;;;;;;;;;;;;;;;;5050759;28;1700;-70
2022/08/26 11:19:08;;;;;;;;;;;;;;;;;;5051363;28;1860;-70
2022/08/26 11:21:47;;;;;;;;;;;;;;;;;;5028174;28;1614;-69
2022/08/26 11:24:33;;;;;;;;;;;;;;;;;;5032147;28;1351;-71
2022/08/26 11:26:59;;;;;;;;;;;;;;;;;;5049537;28;1901;-72
2022/08/26 11:29:43;;;;;;;;;;;;;;;;;;5056719;28;1356;-72
2022/08/26 11:32:21;;;;;;;;;;;;;;;;;;5019040;28;1475;-72
2022/08/26 11:34:51;;;;;;;;;;;;;;;;;;5038392;28;1537;-70
2022/08/26 11:37:16;;;;;;;;;;;;;;;;;;5038854;28;1548;-73
2022/08/26 11:39:50;;;;;;;;;;;;;;;;;;5036024;28;1772;-72
2022/08/26 11:42:27;;;;;;;;;;;;;;;;;;5042557;28;1735;-73
2022/08/26 11:44:53;;;;;;;;;;;;;;;;;;5041813;28;1581;-71
2022/08/26 11:47:25;;;;;;;;;;;;;;;;;;5042870;28;1906;-71
2022/08/26 11:50:04;;;;;;;;;;;;;;;;;;5037758;28;1402;-73
2022/08/26 11:52:31;;;;;;;;;;;;;;;;;;5039099;28;1584;-70
2022/08/26 11:54:59;;;;;;;;;;;;;;;;;;5038475;28;1635;-70
2022/08/26 11:57:25;;;;;;;;;;;;;;;;;;5049040;28;1313;-69
2022/08/26 11:59:50;;;;;;;;;;;;;;;;;;5046655;28;1369;-70
2022/08/26 12:02:16;;;;;;;;;;;;;;;;;;5047006;28;1378;-69
2022/08/26 12:04:43;;;;;;;;;;;;;;;;;;5050415;28;1271;-70
2022/08/26 12:07:08;;;;;;;;;;;;;;;;;;5051594;28;1898;-68
2022/08/26 12:09:35;;;;;;;;;;;;;;;;;;5048061;28;1294;-69
2022/08/26 12:12:20;;;;;;;;;;;;;;;;;;5047224;28;1358;-69
2022/08/26 12:14:45;;;;;;;;;;;;;;;;;;5048007;28;1468;-69
2022/08/26 12:17:14;;;;;;;;;;;;;;;;;;5045408;28;1350;-70
2022/08/26 12:19:40;;;;;;;;;;;;;;;;;;5053180;28;1139;-70
2022/08/26 12:22:17;;;;;;;;;;;;;;;;;;5054901;28;1251;-70
2022/08/26 12:24:47;;;;;;;;;;;;;;;;;;5047387;28;1330;-70
2022/08/26 12:27:15;;;;;;;;;;;;;;;;;;5036955;28;1886;-70
2022/08/26 12:29:40;;;;;;;;;;;;;;;;;;5051607;28;1274;-70
2022/08/26 12:32:07;;;;;;;;;;;;;;;;;;5044783;28;1373;-70
2022/08/26 12:34:32;;;;;;;;;;;;;;;;;;5041915;28;1275;-70
2022/08/26 12:36:58;;;;;;;;;;;;;;;;;;5054376;28;1246;-70
2022/08/26 12:39:29;;;;;;;;;;;;;;;;;;5054340;28;1254;-70
2022/08/26 12:41:58;;;;;;;;;;;;;;;;;;5054444;28;1359;-70
2022/08/26 12:44:40;;;;;;;;;;;;;;;;;;5051105;28;1314;-69
2022/08/26 12:47:10;;;;;;;;;;;;;;;;;;5051196;28;1887;-70
2022/08/26 12:49:36;;;;;;;;;;;;;;;;;;5044615;28;1305;-70
2022/08/26 12:52:03;;;;;;;;;;;;;;;;;;5046052;28;1403;-70
2022/08/26 12:54:57;;;;;;;;;;;;;;;;;;5045940;28;1485;-70
2022/08/26 12:57:13;;;;;;;;;;;;;;;;;;5045106;28;1491;-70
2022/08/26 12:59:38;;;;;;;;;;;;;;;;;;5049265;28;1310;-70
2022/08/26 13:02:03;;;;;;;;;;;;;;;;;;5045069;28;1555;-73
2022/08/26 13:04:35;;;;;;;;;;;;;;;;;;5049359;28;1325;-72
2022/08/26 13:07:12;;;;;;;;;;;;;;;;;;5044999;28;1959;-73
2022/08/26 13:09:37;;;;;;;;;;;;;;;;;;5038855;28;1572;-73
2022/08/26 13:12:03;;;;;;;;;;;;;;;;;;5040881;28;1439;-72
2022/08/26 13:14:28;;;;;;;;;;;;;;;;;;5046381;28;1603;-73
2022/08/26 13:16:53;;;;;;;;;;;;;;;;;;5046832;28;1285;-72
2022/08/26 13:19:20;;;;;;;;;;;;;;;;;;5039868;28;1285;-72
2022/08/26 13:21:47;;;;;;;;;;;;;;;;;;5041010;28;1204;-72
2022/08/26 13:24:16;;;;;;;;;;;;;;;;;;5040935;28;1010;-72
2022/08/26 13:26:44;;;;;;;;;;;;;;;;;;5039817;28;1957;-72
2022/08/26 13:29:10;;;;;;;;;;;;;;;;;;5041783;28;1336;-72
2022/08/26 13:31:37;;;;;;;;;;;;;;;;;;5046206;28;1293;-72
2022/08/26 13:34:03;;;;;;;;;;;;;;;;;;5040793;28;1187;-72
2022/08/26 13:36:28;;;;;;;;;;;;;;;;;;5040434;28;1244;-72
2022/08/26 13:38:53;;;;;;;;;;;;;;;;;;5039290;28;1583;-73
2022/08/26 13:41:18;;;;;;;;;;;;;;;;;;5038330;28;1905;-72
2022/08/26 13:43:44;;;;;;;;;;;;;;;;;;5048012;28;1499;-72
2022/08/26 13:46:09;;;;;;;;;;;;;;;;;;5046064;28;1585;-73
2022/08/26 13:48:34;;;;;;;;;;;;;;;;;;5042395;28;1906;-72
2022/08/26 13:51:01;;;;;;;;;;;;;;;;;;5042382;28;1319;-72
2022/08/26 13:53:28;;;;;;;;;;;;;;;;;;5040197;28;1363;-72
2022/08/26 13:55:53;;;;;;;;;;;;;;;;;;5039589;28;1579;-72
2022/08/26 13:58:18;;;;;;;;;;;;;;;;;;5038851;28;1863;-71
2022/08/26 14:00:43;;;;;;;;;;;;;;;;;;5042255;28;1498;-72
2022/08/26 14:03:09;;;;;;;;;;;;;;;;;;5042839;28;1626;-73
2022/08/26 14:05:34;;;;;;;;;;;;;;;;;;5032462;28;1724;-73
2022/08/26 14:08:00;;;;;;;;;;;;;;;;;;5039237;28;1894;-72
2022/08/26 14:10:25;;;;;;;;;;;;;;;;;;5043364;28;1621;-73
2022/08/26 14:12:51;;;;;;;;;;;;;;;;;;5043684;28;1914;-74
2022/08/26 14:15:17;;;;;;;;;;;;;;;;;;5044515;28;2258;-73
2022/08/26 14:17:43;;;;;;;;;;;;;;;;;;5043333;28;1612;-73
2022/08/26 14:20:11;;;;;;;;;;;;;;;;;;5043796;28;913;-73
2022/08/26 14:22:37;;;;;;;;;;;;;;;;;;5043423;28;889;-73
2022/08/26 14:25:03;;;;;;;;;;;;;;;;;;5045912;28;1266;-73
2022/08/26 14:27:28;;;;;;;;;;;;;;;;;;5050039;28;1955;-73
2022/08/26 14:29:54;;;;;;;;;;;;;;;;;;5044474;28;1346;-73
2022/08/26 14:32:26;;;;;;;;;;;;;;;;;;5050590;28;1131;-75
2022/08/26 14:34:53;;;;;;;;;;;;;;;;;;5043022;28;1636;-75
2022/08/26 14:37:18;;;;;;;;;;;;;;;;;;5037088;28;1374;-74
2022/08/26 14:39:44;;;;;;;;;;;;;;;;;;5029135;28;929;-75
2022/08/26 14:42:10;;;;;;;;;;;;;;;;;;5035942;28;1637;-75
2022/08/26 14:44:36;;;;;;;;;;;;;;;;;;5046690;28;1546;-73
2022/08/26 14:47:03;;;;;;;;;;;;;;;;;;5043022;28;1901;-76
2022/08/26 14:49:29;;;;;;;;;;;;;;;;;;5043006;28;874;-73
2022/08/26 14:51:55;;;;;;;;;;;;;;;;;;5042512;28;1517;-73
2022/08/26 14:54:20;;;;;;;;;;;;;;;;;;5034763;28;1256;-73
2022/08/26 14:56:45;;;;;;;;;;;;;;;;;;5042688;28;1597;-73
2022/08/26 14:59:12;;;;;;;;;;;;;;;;;;5035537;28;1873;-73
2022/08/26 15:01:37;;;;;;;;;;;;;;;;;;5042631;28;2203;-74
2022/08/26 15:04:02;;;;;;;;;;;;;;;;;;5043073;28;980;-73
2022/08/26 15:06:29;;;;;;;;;;;;;;;;;;5041618;28;1890;-73
2022/08/26 15:08:54;;;;;;;;;;;;;;;;;;5043016;28;819;-73
2022/08/26 15:11:19;;;;;;;;;;;;;;;;;;5041716;28;1451;-73
2022/08/26 15:13:45;;;;;;;;;;;;;;;;;;5042782;28;815;-73
2022/08/26 15:16:10;;;;;;;;;;;;;;;;;;5024318;28;1562;-73
2022/08/26 15:18:35;;;;;;;;;;;;;;;;;;5040264;28;1859;-73
2022/08/26 15:21:01;;;;;;;;;;;;;;;;;;5042706;28;1276;-73
2022/08/26 15:23:26;;;;;;;;;;;;;;;;;;5042022;28;839;-73
2022/08/26 15:25:51;;;;;;;;;;;;;;;;;;5041861;28;1395;-73
2022/08/26 15:28:17;;;;;;;;;;;;;;;;;;5042873;28;1902;-74
2022/08/26 15:30:42;;;;;;;;;;;;;;;;;;5042423;28;870;-74
2022/08/26 15:33:07;;;;;;;;;;;;;;;;;;5042521;28;1542;-74
2022/08/26 15:35:32;;;;;;;;;;;;;;;;;;5041975;28;1282;-73
2022/08/26 15:37:57;;;;;;;;;;;;;;;;;;5042515;28;903;-73
2022/08/26 15:40:24;;;;;;;;;;;;;;;;;;5041246;28;1419;-74
2022/08/26 15:42:49;;;;;;;;;;;;;;;;;;5042361;28;1168;-72
2022/08/26 15:45:14;;;;;;;;;;;;;;;;;;5041835;28;1451;-73
2022/08/26 15:47:39;;;;;;;;;;;;;;;;;;5041658;28;1967;-73
2022/08/26 15:50:05;;;;;;;;;;;;;;;;;;5042548;28;787;-73
2022/08/26 15:52:31;;;;;;;;;;;;;;;;;;5041626;28;1645;-73
2022/08/26 15:54:57;;;;;;;;;;;;;;;;;;5033648;28;1374;-73
2022/08/26 15:57:22;;;;;;;;;;;;;;;;;;5039490;28;1421;-72
2022/08/26 15:59:47;;;;;;;;;;;;;;;;;;5042161;28;960;-73
2022/08/26 16:02:12;;;;;;;;;;;;;;;;;;5041518;28;1534;-72
2022/08/26 16:04:37;;;;;;;;;;;;;;;;;;5041522;28;1162;-73
2022/08/26 16:07:03;;;;;;;;;;;;;;;;;;5041945;28;1975;-73
2022/08/26 16:09:29;;;;;;;;;;;;;;;;;;5042796;28;1354;-73
2022/08/26 16:11:55;;;;;;;;;;;;;;;;;;5045214;28;1566;-73
2022/08/26 16:14:21;;;;;;;;;;;;;;;;;;5040643;28;1445;-73
2022/08/26 16:16:46;;;;;;;;;;;;;;;;;;5041013;28;1586;-72
2022/08/26 16:19:11;;;;;;;;;;;;;;;;;;5036065;28;1468;-72
2022/08/26 16:21:38;;;;;;;;;;;;;;;;;;5035018;28;1553;-72
2022/08/26 16:24:03;;;;;;;;;;;;;;;;;;5035096;28;1334;-71
2022/08/26 16:26:31;;;;;;;;;;;;;;;;;;5031317;28;1969;-72
2022/08/26 16:28:57;;;;;;;;;;;;;;;;;;5034409;28;1306;-72
2022/08/26 16:31:22;;;;;;;;;;;;;;;;;;5034486;28;1641;-72
2022/08/26 16:33:48;;;;;;;;;;;;;;;;;;5033767;28;1377;-71
2022/08/26 16:36:13;;;;;;;;;;;;;;;;;;5016037;28;1577;-71
2022/08/26 16:38:39;;;;;;;;;;;;;;;;;;5034263;28;1396;-72
2022/08/26 16:41:04;;;;;;;;;;;;;;;;;;5033907;28;1474;-72
2022/08/26 16:43:30;;;;;;;;;;;;;;;;;;5034001;28;1208;-72
2022/08/26 16:45:55;;;;;;;;;;;;;;;;;;5035635;28;1385;-72
2022/08/26 16:48:22;;;;;;;;;;;;;;;;;;5015958;28;1957;-72
2022/08/26 16:50:48;;;;;;;;;;;;;;;;;;5034412;28;1378;-72
2022/08/26 16:53:13;;;;;;;;;;;;;;;;;;5016287;28;1472;-72
2022/08/26 16:55:38;;;;;;;;;;;;;;;;;;5033096;28;1299;-72
2022/08/26 16:58:04;;;;;;;;;;;;;;;;;;5033651;28;1275;-71
2022/08/26 17:00:31;;;;;;;;;;;;;;;;;;5033750;28;1805;-72
2022/08/26 17:02:57;;;;;;;;;;;;;;;;;;5029451;28;1397;-72
2022/08/26 17:05:24;;;;;;;;;;;;;;;;;;5033520;28;1244;-71
2022/08/26 17:07:49;;;;;;;;;;;;;;;;;;5033477;28;1965;-71
2022/08/26 17:10:15;;;;;;;;;;;;;;;;;;5033347;28;1474;-72
2022/08/26 17:12:40;;;;;;;;;;;;;;;;;;5015567;28;1336;-71